高雄國際航空站 - ATIS

METAR RCKH 230030Z 22009KT 180V250 7000 -SHRA FEW009 FEW012TCU SCT016 BKN025 28/26 Q1010 TEMPO 5000 SHRA RMK TCU NW-N A2983=

站台狀態:Online
最後更新:2018-06-23 08:45:01